createdAt,value
2023-02-28T09:10:36.961Z,87.20
2023-02-28T09:13:04.314Z,88.10
2023-02-28T09:15:31.624Z,88.70
2023-02-28T09:17:58.978Z,88.70
2023-02-28T09:20:26.563Z,89.20
2023-02-28T09:22:53.915Z,88.10
2023-02-28T09:25:21.282Z,87.50
2023-02-28T09:27:48.637Z,87.60
2023-02-28T09:30:17.213Z,86.50
2023-02-28T09:32:54.708Z,86.70
2023-02-28T09:35:27.731Z,86.40
2023-02-28T09:37:55.172Z,86.40
2023-02-28T09:40:26.583Z,86.80
2023-02-28T09:42:58.276Z,86.40
2023-02-28T09:45:43.668Z,86.30
2023-02-28T09:48:27.838Z,86.20
2023-02-28T09:51:13.654Z,85.90
2023-02-28T09:53:41.093Z,85.80
2023-02-28T09:56:42.866Z,85.30
2023-02-28T09:59:45.656Z,85.60
2023-02-28T10:03:05.056Z,84.60
2023-02-28T10:06:18.143Z,84.70
2023-02-28T10:09:14.464Z,84.20
2023-02-28T10:11:43.855Z,84.80
2023-02-28T10:14:28.594Z,83.90
2023-02-28T10:17:26.460Z,84.60
2023-02-28T10:20:30.744Z,83.40
2023-02-28T10:23:32.840Z,83.10
2023-02-28T10:26:17.076Z,82.30
2023-02-28T10:28:45.497Z,83.40
2023-02-28T10:31:22.679Z,83.10
2023-02-28T10:33:51.396Z,82.80
2023-02-28T10:36:22.814Z,81.90
2023-02-28T10:38:51.461Z,82.20
2023-02-28T10:41:37.262Z,82.60
2023-02-28T10:44:34.154Z,82.60
2023-02-28T10:47:01.502Z,81.70
2023-02-28T10:49:30.236Z,81.40
2023-02-28T10:52:01.964Z,81.30
2023-02-28T10:54:38.847Z,80.40
2023-02-28T10:57:29.596Z,80.60
2023-02-28T11:00:22.587Z,81.10
2023-02-28T11:02:50.415Z,81.50
2023-02-28T11:05:32.627Z,80.10
2023-02-28T11:08:16.940Z,80.90
2023-02-28T11:11:00.138Z,80.20
2023-02-28T11:13:37.240Z,80.50
2023-02-28T11:16:13.724Z,80.20
2023-02-28T11:18:56.401Z,79.40
2023-02-28T11:21:37.666Z,78.90
2023-02-28T11:24:30.073Z,79.20
2023-02-28T11:26:58.272Z,78.60
2023-02-28T11:29:35.657Z,78.60
2023-02-28T11:32:29.726Z,78.30
2023-02-28T11:35:23.457Z,79.30
2023-02-28T11:37:51.008Z,78.80
2023-02-28T11:40:39.799Z,78.60
2023-02-28T11:43:57.457Z,77.70
2023-02-28T11:46:55.363Z,78.30
2023-02-28T11:50:18.673Z,78.20
2023-02-28T11:53:32.088Z,78.40
2023-02-28T11:56:43.545Z,76.90
2023-02-28T11:59:50.300Z,77.00
2023-02-28T12:03:42.538Z,75.70
2023-02-28T12:06:36.663Z,76.00
2023-02-28T12:10:06.182Z,74.50
2023-02-28T12:13:28.110Z,75.40
2023-02-28T12:16:39.830Z,75.90
2023-02-28T12:19:59.314Z,74.40
2023-02-28T12:22:43.536Z,73.90
2023-02-28T12:26:11.306Z,71.30
2023-02-28T12:28:54.525Z,68.90
2023-02-28T12:31:32.102Z,67.90
2023-02-28T12:34:11.146Z,67.60
2023-02-28T12:36:41.132Z,66.90
2023-02-28T12:39:39.085Z,67.00
2023-02-28T12:42:33.490Z,66.30
2023-02-28T12:45:24.892Z,66.80
2023-02-28T12:48:23.101Z,66.40
2023-02-28T12:50:51.399Z,66.60
2023-02-28T12:54:11.584Z,66.20
2023-02-28T12:57:35.951Z,66.00
2023-02-28T13:00:23.295Z,65.50
2023-02-28T13:03:26.060Z,65.00
2023-02-28T13:06:36.615Z,65.90
2023-02-28T13:09:14.789Z,65.40
2023-02-28T13:11:48.699Z,65.50
2023-02-28T13:14:34.292Z,65.20
2023-02-28T13:17:14.131Z,65.10
2023-02-28T13:20:38.069Z,65.10
2023-02-28T13:23:25.405Z,64.70
2023-02-28T13:25:54.622Z,65.10
2023-02-28T13:28:56.593Z,64.30
2023-02-28T13:31:23.988Z,63.20
2023-02-28T13:34:00.553Z,64.30
2023-02-28T13:36:33.859Z,63.90
2023-02-28T13:39:37.794Z,63.80
2023-02-28T13:42:36.998Z,63.40
2023-02-28T13:45:06.926Z,62.90
2023-02-28T13:48:15.856Z,63.10
2023-02-28T13:50:44.847Z,63.50
2023-02-28T13:53:14.964Z,63.80
2023-02-28T13:56:11.241Z,63.50
2023-02-28T13:59:21.905Z,63.70
2023-02-28T14:02:50.178Z,63.50
2023-02-28T14:05:26.704Z,64.40
2023-02-28T14:08:07.398Z,63.60
2023-02-28T14:10:49.903Z,62.80
2023-02-28T14:13:48.342Z,63.60
2023-02-28T14:16:40.311Z,63.20
2023-02-28T14:19:28.532Z,63.50
2023-02-28T14:23:01.545Z,63.00
2023-02-28T14:25:54.702Z,63.40
2023-02-28T14:29:25.624Z,63.70
2023-02-28T14:32:23.373Z,63.50
2023-02-28T14:35:59.040Z,64.00
2023-02-28T14:39:17.156Z,63.60
2023-02-28T14:41:46.956Z,64.00
2023-02-28T14:44:28.950Z,64.10
2023-02-28T14:47:09.934Z,64.10
2023-02-28T14:49:46.781Z,64.50
2023-02-28T14:52:25.288Z,63.90
2023-02-28T14:55:15.527Z,64.00
2023-02-28T14:58:05.182Z,64.20
2023-02-28T15:00:51.811Z,64.50
2023-02-28T15:03:38.001Z,64.50
2023-02-28T15:06:17.665Z,64.40
2023-02-28T15:08:46.621Z,64.30
2023-02-28T15:11:23.185Z,64.20
2023-02-28T15:13:56.529Z,64.50
2023-02-28T15:16:38.460Z,64.70
2023-02-28T15:19:27.267Z,64.20
2023-02-28T15:22:17.845Z,64.50
2023-02-28T15:24:52.207Z,64.90
2023-02-28T15:27:34.679Z,64.90
2023-02-28T15:30:33.663Z,65.00
2023-02-28T15:33:25.979Z,64.80
2023-02-28T15:36:16.915Z,64.60
2023-02-28T15:38:45.021Z,64.80
2023-02-28T15:41:39.085Z,64.60
2023-02-28T15:44:39.132Z,64.70
2023-02-28T15:47:26.122Z,64.80
2023-02-28T15:50:13.486Z,64.90
2023-02-28T15:52:45.991Z,65.00
2023-02-28T15:55:30.773Z,64.90
2023-02-28T15:58:02.921Z,65.20
2023-02-28T16:00:33.957Z,65.50
2023-02-28T16:03:01.410Z,65.20
2023-02-28T16:05:32.886Z,65.10
2023-02-28T16:08:16.573Z,64.90
2023-02-28T16:10:43.899Z,65.20
2023-02-28T16:13:16.142Z,65.10
2023-02-28T16:15:44.887Z,65.20
2023-02-28T16:18:14.179Z,65.30
2023-02-28T16:20:42.383Z,65.30
2023-02-28T16:23:09.690Z,65.00
2023-02-28T16:25:44.621Z,65.10
2023-02-28T16:28:39.848Z,65.50
2023-02-28T16:31:08.603Z,65.70
2023-02-28T16:33:35.994Z,65.80
2023-02-28T16:36:03.701Z,65.90
2023-02-28T16:38:31.052Z,66.20
2023-02-28T16:41:01.077Z,65.90
2023-02-28T16:43:29.067Z,65.90
2023-02-28T16:46:02.372Z,66.00
2023-02-28T16:48:30.566Z,65.60
2023-02-28T16:50:58.093Z,65.80
2023-02-28T16:53:25.361Z,65.90
2023-02-28T16:55:52.736Z,65.70
2023-02-28T16:58:22.673Z,65.90
2023-02-28T17:00:50.212Z,65.40
2023-02-28T17:03:33.489Z,65.70
2023-02-28T17:06:02.237Z,65.60
2023-02-28T17:08:30.802Z,65.50
2023-02-28T17:10:58.140Z,65.20
2023-02-28T17:13:25.878Z,65.50
2023-02-28T17:15:53.346Z,65.50
2023-02-28T17:18:22.071Z,65.70
2023-02-28T17:20:49.984Z,65.70
2023-02-28T17:23:17.406Z,65.50
2023-02-28T17:25:56.390Z,65.50
2023-02-28T17:28:25.849Z,65.60
2023-02-28T17:30:53.245Z,65.60
2023-02-28T17:33:20.573Z,65.50
2023-02-28T17:35:48.255Z,65.80
2023-02-28T17:38:20.621Z,65.70
2023-02-28T17:40:48.000Z,65.90
2023-02-28T17:43:15.888Z,65.70
2023-02-28T17:45:43.386Z,65.90
2023-02-28T17:48:13.994Z,65.80
2023-02-28T17:50:41.408Z,66.10
2023-02-28T17:53:08.715Z,66.10
2023-02-28T17:55:36.911Z,66.30
2023-02-28T17:58:04.859Z,66.60
2023-02-28T18:00:35.553Z,66.50
2023-02-28T18:03:02.942Z,66.20
2023-02-28T18:05:31.068Z,66.10
2023-02-28T18:07:58.579Z,66.20
2023-02-28T18:10:28.281Z,66.30
2023-02-28T18:12:55.858Z,66.30
2023-02-28T18:15:23.622Z,66.60
2023-02-28T18:17:51.168Z,66.70
2023-02-28T18:20:19.633Z,66.80
2023-02-28T18:22:47.619Z,66.90
2023-02-28T18:25:17.054Z,67.00
2023-02-28T18:27:58.596Z,67.40
2023-02-28T18:30:37.342Z,67.40
2023-02-28T18:33:05.272Z,67.00
2023-02-28T18:35:36.153Z,66.80
2023-02-28T18:38:30.095Z,66.60
2023-02-28T18:41:05.458Z,66.40
2023-02-28T18:43:36.572Z,66.30
2023-02-28T18:46:15.689Z,67.10
2023-02-28T18:48:44.047Z,66.70
2023-02-28T18:51:23.599Z,66.80
2023-02-28T18:53:51.066Z,66.60
2023-02-28T18:56:23.885Z,66.90
2023-02-28T18:58:52.925Z,66.70
2023-02-28T19:01:31.050Z,67.00
2023-02-28T19:04:01.808Z,66.90
2023-02-28T19:06:31.261Z,67.00
2023-02-28T19:09:03.819Z,66.80
2023-02-28T19:11:32.101Z,66.80
2023-02-28T19:13:59.676Z,67.30
2023-02-28T19:16:28.308Z,67.30
2023-02-28T19:18:56.064Z,67.20
2023-02-28T19:21:25.057Z,67.10
2023-02-28T19:23:53.291Z,66.80
2023-02-28T19:26:25.564Z,67.20
2023-02-28T19:28:53.617Z,67.10
2023-02-28T19:31:26.671Z,67.10
2023-02-28T19:33:54.957Z,67.30
2023-02-28T19:36:23.468Z,67.50
2023-02-28T19:38:51.181Z,67.60
2023-02-28T19:41:19.543Z,67.70
2023-02-28T19:43:47.915Z,67.80
2023-02-28T19:46:15.531Z,68.00
2023-02-28T19:48:44.761Z,67.70
2023-02-28T19:51:14.984Z,67.80
2023-02-28T19:53:43.555Z,67.60
2023-02-28T19:56:12.055Z,67.60
2023-02-28T19:58:40.063Z,67.60
2023-02-28T20:01:18.862Z,67.90
2023-02-28T20:03:51.756Z,67.40
2023-02-28T20:06:19.292Z,67.20
2023-02-28T20:08:46.602Z,67.60
2023-02-28T20:11:17.535Z,67.80
2023-02-28T20:13:45.866Z,67.60
2023-02-28T20:16:15.969Z,67.40
2023-02-28T20:18:46.662Z,67.60
2023-02-28T20:21:14.318Z,67.30
2023-02-28T20:23:43.380Z,67.70
2023-02-28T20:26:12.463Z,67.60
2023-02-28T20:28:40.487Z,67.60
